sensor_id;sensor_type;location;lat;lon;timestamp;pressure;altitude;pressure_sealevel;temperature;humidity
73633;BME280;61927;50.080;14.418;2023-10-08T00:01:03;99575.31;;;17.05;61.19
73633;BME280;61927;50.080;14.418;2023-10-08T00:03:49;99582.06;;;17.00;61.36
73633;BME280;61927;50.080;14.418;2023-10-08T00:06:17;99588.97;;;17.02;61.34
73633;BME280;61927;50.080;14.418;2023-10-08T00:08:45;99584.75;;;17.00;61.51
73633;BME280;61927;50.080;14.418;2023-10-08T00:11:10;99579.50;;;16.98;61.51
73633;BME280;61927;50.080;14.418;2023-10-08T00:13:37;99572.72;;;16.94;61.28
73633;BME280;61927;50.080;14.418;2023-10-08T00:16:07;99571.59;;;16.97;61.49
73633;BME280;61927;50.080;14.418;2023-10-08T00:18:37;99569.06;;;16.95;61.67
73633;BME280;61927;50.080;14.418;2023-10-08T00:21:04;99569.44;;;16.91;61.80
73633;BME280;61927;50.080;14.418;2023-10-08T00:23:32;99571.28;;;16.90;62.05
73633;BME280;61927;50.080;14.418;2023-10-08T00:26:01;99580.88;;;16.93;61.69
73633;BME280;61927;50.080;14.418;2023-10-08T00:28:30;99580.03;;;16.92;61.63
73633;BME280;61927;50.080;14.418;2023-10-08T00:30:58;99575.22;;;16.86;62.01
73633;BME280;61927;50.080;14.418;2023-10-08T00:33:30;99567.69;;;16.80;62.13
73633;BME280;61927;50.080;14.418;2023-10-08T00:35:56;99568.47;;;16.71;62.42
73633;BME280;61927;50.080;14.418;2023-10-08T00:38:22;99562.53;;;16.67;62.93
73633;BME280;61927;50.080;14.418;2023-10-08T00:40:50;99574.34;;;16.65;62.70
73633;BME280;61927;50.080;14.418;2023-10-08T00:43:32;99566.78;;;16.70;62.46
73633;BME280;61927;50.080;14.418;2023-10-08T00:45:59;99566.38;;;16.74;62.58
73633;BME280;61927;50.080;14.418;2023-10-08T00:48:25;99562.72;;;16.75;62.56
73633;BME280;61927;50.080;14.418;2023-10-08T00:50:58;99558.81;;;16.79;62.52
73633;BME280;61927;50.080;14.418;2023-10-08T00:53:40;99555.84;;;16.83;62.51
73633;BME280;61927;50.080;14.418;2023-10-08T00:56:09;99558.41;;;16.84;62.37
73633;BME280;61927;50.080;14.418;2023-10-08T00:58:41;99554.63;;;16.87;62.34
73633;BME280;61927;50.080;14.418;2023-10-08T01:01:10;99555.91;;;16.92;61.77
73633;BME280;61927;50.080;14.418;2023-10-08T01:03:37;99560.22;;;17.04;61.54
73633;BME280;61927;50.080;14.418;2023-10-08T01:06:11;99543.28;;;17.04;61.33
73633;BME280;61927;50.080;14.418;2023-10-08T01:08:37;99539.03;;;17.01;61.77
73633;BME280;61927;50.080;14.418;2023-10-08T01:11:19;99543.00;;;17.07;61.16
73633;BME280;61927;50.080;14.418;2023-10-08T01:14:03;99540.47;;;17.05;61.30
73633;BME280;61927;50.080;14.418;2023-10-08T01:16:33;99540.47;;;17.05;61.26
73633;BME280;61927;50.080;14.418;2023-10-08T01:19:00;99528.34;;;17.11;61.18
73633;BME280;61927;50.080;14.418;2023-10-08T01:21:29;99540.59;;;17.04;60.95
73633;BME280;61927;50.080;14.418;2023-10-08T01:24:01;99530.00;;;17.02;61.43
73633;BME280;61927;50.080;14.418;2023-10-08T01:26:28;99520.41;;;17.00;61.31
73633;BME280;61927;50.080;14.418;2023-10-08T01:28:57;99529.56;;;16.97;61.63
73633;BME280;61927;50.080;14.418;2023-10-08T01:31:22;99542.13;;;16.97;61.77
73633;BME280;61927;50.080;14.418;2023-10-08T01:33:48;99555.25;;;17.00;61.42
73633;BME280;61927;50.080;14.418;2023-10-08T01:36:16;99549.31;;;16.96;61.71
73633;BME280;61927;50.080;14.418;2023-10-08T01:38:41;99538.72;;;16.95;61.78
73633;BME280;61927;50.080;14.418;2023-10-08T01:41:08;99535.78;;;16.98;61.72
73633;BME280;61927;50.080;14.418;2023-10-08T01:43:54;99534.78;;;16.99;61.63
73633;BME280;61927;50.080;14.418;2023-10-08T01:46:20;99539.88;;;17.02;61.72
73633;BME280;61927;50.080;14.418;2023-10-08T01:48:47;99544.25;;;17.03;61.83
73633;BME280;61927;50.080;14.418;2023-10-08T01:51:14;99542.16;;;17.06;61.63
73633;BME280;61927;50.080;14.418;2023-10-08T01:53:52;99534.13;;;17.06;61.47
73633;BME280;61927;50.080;14.418;2023-10-08T01:56:19;99534.53;;;17.02;61.81
73633;BME280;61927;50.080;14.418;2023-10-08T01:58:45;99539.16;;;17.00;62.02
73633;BME280;61927;50.080;14.418;2023-10-08T02:01:12;99534.91;;;16.97;62.05
73633;BME280;61927;50.080;14.418;2023-10-08T02:03:38;99537.91;;;17.04;61.81
73633;BME280;61927;50.080;14.418;2023-10-08T02:06:04;99531.56;;;17.05;62.10
73633;BME280;61927;50.080;14.418;2023-10-08T02:08:33;99529.28;;;17.00;62.03
73633;BME280;61927;50.080;14.418;2023-10-08T02:10:59;99529.28;;;17.00;62.17
73633;BME280;61927;50.080;14.418;2023-10-08T02:13:25;99539.88;;;17.02;62.27
73633;BME280;61927;50.080;14.418;2023-10-08T02:15:51;99524.66;;;17.02;62.41
73633;BME280;61927;50.080;14.418;2023-10-08T02:18:20;99531.25;;;16.98;62.51
73633;BME280;61927;50.080;14.418;2023-10-08T02:20:49;99527.28;;;16.93;62.77
73633;BME280;61927;50.080;14.418;2023-10-08T02:23:14;99518.78;;;16.88;62.83
73633;BME280;61927;50.080;14.418;2023-10-08T02:25:40;99530.34;;;16.88;62.81
73633;BME280;61927;50.080;14.418;2023-10-08T02:28:09;99519.09;;;16.94;62.94
73633;BME280;61927;50.080;14.418;2023-10-08T02:30:38;99518.13;;;16.95;62.84
73633;BME280;61927;50.080;14.418;2023-10-08T02:33:07;99546.88;;;16.93;63.03
73633;BME280;61927;50.080;14.418;2023-10-08T02:35:43;99530.59;;;17.06;62.55
73633;BME280;61927;50.080;14.418;2023-10-08T02:38:10;99523.94;;;17.00;62.77
73633;BME280;61927;50.080;14.418;2023-10-08T02:40:39;99521.13;;;17.02;62.80
73633;BME280;61927;50.080;14.418;2023-10-08T02:43:10;99515.03;;;17.00;62.91
73633;BME280;61927;50.080;14.418;2023-10-08T02:45:37;99512.75;;;16.95;63.29
73633;BME280;61927;50.080;14.418;2023-10-08T02:48:05;99515.31;;;16.97;63.22
73633;BME280;61927;50.080;14.418;2023-10-08T02:50:41;99512.75;;;16.95;63.20
73633;BME280;61927;50.080;14.418;2023-10-08T02:53:07;99512.91;;;16.94;63.25
73633;BME280;61927;50.080;14.418;2023-10-08T02:55:37;99510.63;;;16.89;63.51
73633;BME280;61927;50.080;14.418;2023-10-08T02:58:08;99495.66;;;16.87;63.55
73633;BME280;61927;50.080;14.418;2023-10-08T03:00:39;99488.59;;;16.86;63.85
73633;BME280;61927;50.080;14.418;2023-10-08T03:03:06;99503.81;;;16.85;63.88
73633;BME280;61927;50.080;14.418;2023-10-08T03:05:48;99502.97;;;16.85;63.74
73633;BME280;61927;50.080;14.418;2023-10-08T03:08:15;99509.19;;;16.85;63.88
73633;BME280;61927;50.080;14.418;2023-10-08T03:10:46;99513.56;;;16.86;63.91
73633;BME280;61927;50.080;14.418;2023-10-08T03:13:17;99525.53;;;16.82;64.19
73633;BME280;61927;50.080;14.418;2023-10-08T03:15:44;99519.59;;;16.78;64.25
73633;BME280;61927;50.080;14.418;2023-10-08T03:18:23;99530.03;;;16.82;64.25
73633;BME280;61927;50.080;14.418;2023-10-08T03:20:50;99541.22;;;16.87;64.22
73633;BME280;61927;50.080;14.418;2023-10-08T03:23:17;99555.34;;;16.89;63.96
73633;BME280;61927;50.080;14.418;2023-10-08T03:25:53;99559.84;;;16.88;63.94
73633;BME280;61927;50.080;14.418;2023-10-08T03:28:53;99560.44;;;16.92;63.90
73633;BME280;61927;50.080;14.418;2023-10-08T03:31:23;99566.78;;;16.91;64.05
73633;BME280;61927;50.080;14.418;2023-10-08T03:34:10;99563.56;;;16.97;63.69
73633;BME280;61927;50.080;14.418;2023-10-08T03:36:41;99562.31;;;17.01;63.85
73633;BME280;61927;50.080;14.418;2023-10-08T03:39:10;99552.56;;;17.00;63.70
73633;BME280;61927;50.080;14.418;2023-10-08T03:41:42;99552.84;;;16.97;63.81
73633;BME280;61927;50.080;14.418;2023-10-08T03:44:17;99535.91;;;16.96;63.89
73633;BME280;61927;50.080;14.418;2023-10-08T03:46:43;99534.66;;;17.00;63.90
73633;BME280;61927;50.080;14.418;2023-10-08T03:49:09;99549.88;;;17.00;64.13
73633;BME280;61927;50.080;14.418;2023-10-08T03:51:51;99540.16;;;16.99;63.88
73633;BME280;61927;50.080;14.418;2023-10-08T03:54:18;99551.13;;;16.96;64.24
73633;BME280;61927;50.080;14.418;2023-10-08T03:56:45;99545.19;;;16.92;64.40
73633;BME280;61927;50.080;14.418;2023-10-08T03:59:12;99552.38;;;16.92;64.68
73633;BME280;61927;50.080;14.418;2023-10-08T04:01:39;99552.44;;;17.01;64.67
73633;BME280;61927;50.080;14.418;2023-10-08T04:04:08;99539.88;;;17.02;64.66
73633;BME280;61927;50.080;14.418;2023-10-08T04:06:41;99544.72;;;17.08;64.91
73633;BME280;61927;50.080;14.418;2023-10-08T04:09:19;99553.75;;;17.07;65.38
73633;BME280;61927;50.080;14.418;2023-10-08T04:11:51;99560.22;;;17.04;65.43
73633;BME280;61927;50.080;14.418;2023-10-08T04:14:22;99570.28;;;17.12;65.38
73633;BME280;61927;50.080;14.418;2023-10-08T04:16:48;99564.38;;;17.18;65.30
73633;BME280;61927;50.080;14.418;2023-10-08T04:19:21;99561.69;;;17.18;65.21
73633;BME280;61927;50.080;14.418;2023-10-08T04:21:53;99573.72;;;17.24;65.34
73633;BME280;61927;50.080;14.418;2023-10-08T04:24:24;99552.72;;;17.29;65.36
73633;BME280;61927;50.080;14.418;2023-10-08T04:27:02;99553.41;;;17.31;65.37
73633;BME280;61927;50.080;14.418;2023-10-08T04:29:34;99542.16;;;17.37;65.23
73633;BME280;61927;50.080;14.418;2023-10-08T04:32:03;99553.72;;;17.37;65.01
73633;BME280;61927;50.080;14.418;2023-10-08T04:34:37;99550.06;;;17.38;65.09
73633;BME280;61927;50.080;14.418;2023-10-08T04:37:03;99553.47;;;17.40;65.26
73633;BME280;61927;50.080;14.418;2023-10-08T04:39:38;99568.31;;;17.44;65.28
73633;BME280;61927;50.080;14.418;2023-10-08T04:42:06;99575.38;;;17.46;64.74
73633;BME280;61927;50.080;14.418;2023-10-08T04:44:39;99591.78;;;17.52;65.08
73633;BME280;61927;50.080;14.418;2023-10-08T04:47:07;99586.81;;;17.48;65.06
73633;BME280;61927;50.080;14.418;2023-10-08T04:49:34;99589.94;;;17.53;64.64
73633;BME280;61927;50.080;14.418;2023-10-08T04:52:05;99649.28;;;17.59;64.86
73633;BME280;61927;50.080;14.418;2023-10-08T04:54:39;99671.88;;;17.36;68.78
73633;BME280;61927;50.080;14.418;2023-10-08T04:57:07;99694.03;;;16.64;70.92
73633;BME280;61927;50.080;14.418;2023-10-08T04:59:41;99717.31;;;15.65;71.54
73633;BME280;61927;50.080;14.418;2023-10-08T05:02:07;99705.56;;;14.97;74.09
73633;BME280;61927;50.080;14.418;2023-10-08T05:05:08;99707.44;;;14.73;74.83
73633;BME280;61927;50.080;14.418;2023-10-08T05:07:37;99721.88;;;14.46;74.40
73633;BME280;61927;50.080;14.418;2023-10-08T05:10:13;99716.91;;;14.16;74.47
73633;BME280;61927;50.080;14.418;2023-10-08T05:12:45;99718.22;;;14.11;73.74
73633;BME280;61927;50.080;14.418;2023-10-08T05:15:27;99738.81;;;14.09;73.66
73633;BME280;61927;50.080;14.418;2023-10-08T05:18:07;99736.34;;;14.18;72.66
73633;BME280;61927;50.080;14.418;2023-10-08T05:20:51;99747.91;;;13.94;72.39
73633;BME280;61927;50.080;14.418;2023-10-08T05:23:19;99754.09;;;13.94;72.95
73633;BME280;61927;50.080;14.418;2023-10-08T05:25:55;99778.09;;;13.94;73.17
73633;BME280;61927;50.080;14.418;2023-10-08T05:28:36;99779.72;;;13.84;73.83
73633;BME280;61927;50.080;14.418;2023-10-08T05:31:08;99781.41;;;13.72;74.45
73633;BME280;61927;50.080;14.418;2023-10-08T05:33:47;99776.19;;;13.71;74.96
73633;BME280;61927;50.080;14.418;2023-10-08T05:36:31;99788.56;;;13.59;75.82
73633;BME280;61927;50.080;14.418;2023-10-08T05:39:35;99805.84;;;13.53;76.68
73633;BME280;61927;50.080;14.418;2023-10-08T05:42:19;99815.09;;;13.35;77.61
73633;BME280;61927;50.080;14.418;2023-10-08T05:44:54;99796.13;;;13.40;77.59
73633;BME280;61927;50.080;14.418;2023-10-08T05:47:34;99833.63;;;13.37;77.97
73633;BME280;61927;50.080;14.418;2023-10-08T05:50:00;99832.44;;;13.28;78.50
73633;BME280;61927;50.080;14.418;2023-10-08T05:52:55;99852.66;;;13.18;79.14
73633;BME280;61927;50.080;14.418;2023-10-08T05:55:24;99861.97;;;13.25;78.88
73633;BME280;61927;50.080;14.418;2023-10-08T06:00:28;99872.94;;;13.20;79.44
73633;BME280;61927;50.080;14.418;2023-10-08T06:03:00;99881.97;;;13.18;80.10
73633;BME280;61927;50.080;14.418;2023-10-08T06:05:35;99886.91;;;13.24;80.24
73633;BME280;61927;50.080;14.418;2023-10-08T06:08:09;99901.75;;;13.14;80.65
73633;BME280;61927;50.080;14.418;2023-10-08T06:10:38;99922.72;;;13.06;81.51
73633;BME280;61927;50.080;14.418;2023-10-08T06:13:08;99930.22;;;13.13;80.26
73633;BME280;61927;50.080;14.418;2023-10-08T06:15:52;99947.03;;;13.14;76.55
73633;BME280;61927;50.080;14.418;2023-10-08T06:18:22;99954.56;;;13.21;78.56
73633;BME280;61927;50.080;14.418;2023-10-08T06:20:55;99957.81;;;13.12;76.70
73633;BME280;61927;50.080;14.418;2023-10-08T06:23:24;99964.78;;;12.86;78.30
73633;BME280;61927;50.080;14.418;2023-10-08T06:25:52;99966.97;;;12.37;79.45
73633;BME280;61927;50.080;14.418;2023-10-08T06:28:37;99965.97;;;12.10;80.81
73633;BME280;61927;50.080;14.418;2023-10-08T06:31:04;99985.00;;;12.18;80.96
73633;BME280;61927;50.080;14.418;2023-10-08T06:33:40;99993.03;;;12.02;80.25
73633;BME280;61927;50.080;14.418;2023-10-08T06:36:06;100003.72;;;11.86;81.40
73633;BME280;61927;50.080;14.418;2023-10-08T06:38:39;100009.06;;;11.55;82.41
73633;BME280;61927;50.080;14.418;2023-10-08T06:41:07;100001.50;;;11.47;82.39
73633;BME280;61927;50.080;14.418;2023-10-08T06:43:42;100012.75;;;11.52;82.59
73633;BME280;61927;50.080;14.418;2023-10-08T06:46:12;100028.69;;;11.52;82.27
73633;BME280;61927;50.080;14.418;2023-10-08T06:48:39;100026.88;;;11.53;82.24
73633;BME280;61927;50.080;14.418;2023-10-08T06:51:09;100042.66;;;11.56;82.62
73633;BME280;61927;50.080;14.418;2023-10-08T06:53:41;100044.88;;;11.48;82.72
73633;BME280;61927;50.080;14.418;2023-10-08T06:56:07;100052.44;;;11.55;82.84
73633;BME280;61927;50.080;14.418;2023-10-08T06:58:35;100064.34;;;11.64;83.23
73633;BME280;61927;50.080;14.418;2023-10-08T07:01:01;100088.19;;;11.65;81.78
73633;BME280;61927;50.080;14.418;2023-10-08T07:03:31;100097.38;;;11.60;82.64
73633;BME280;61927;50.080;14.418;2023-10-08T07:05:58;100104.91;;;11.68;82.83
73633;BME280;61927;50.080;14.418;2023-10-08T07:08:26;100102.16;;;11.69;83.68
73633;BME280;61927;50.080;14.418;2023-10-08T07:10:53;100109.88;;;11.74;82.66
73633;BME280;61927;50.080;14.418;2023-10-08T07:13:19;100103.53;;;11.60;81.46
73633;BME280;61927;50.080;14.418;2023-10-08T07:15:49;100117.44;;;11.65;82.39
73633;BME280;61927;50.080;14.418;2023-10-08T07:18:14;100136.22;;;11.62;82.50
73633;BME280;61927;50.080;14.418;2023-10-08T07:20:45;100135.25;;;11.48;82.38
73633;BME280;61927;50.080;14.418;2023-10-08T07:23:13;100141.66;;;11.44;82.63
73633;BME280;61927;50.080;14.418;2023-10-08T07:25:46;100140.81;;;11.43;82.69
73633;BME280;61927;50.080;14.418;2023-10-08T07:28:18;100140.22;;;11.38;81.96
73633;BME280;61927;50.080;14.418;2023-10-08T07:30:45;100139.78;;;11.46;82.80
73633;BME280;61927;50.080;14.418;2023-10-08T07:33:11;100151.72;;;11.54;81.83
73633;BME280;61927;50.080;14.418;2023-10-08T07:35:44;100146.66;;;11.65;80.61
73633;BME280;61927;50.080;14.418;2023-10-08T07:38:17;100158.91;;;11.52;78.93
73633;BME280;61927;50.080;14.418;2023-10-08T07:40:43;100166.06;;;11.68;80.88
73633;BME280;61927;50.080;14.418;2023-10-08T07:43:10;100166.88;;;11.85;79.78
73633;BME280;61927;50.080;14.418;2023-10-08T07:45:36;100174.16;;;11.98;77.98
73633;BME280;61927;50.080;14.418;2023-10-08T07:48:02;100179.88;;;11.74;77.47
73633;BME280;61927;50.080;14.418;2023-10-08T07:50:35;100180.13;;;11.70;78.03
73633;BME280;61927;50.080;14.418;2023-10-08T07:53:03;100185.00;;;11.61;77.94
73633;BME280;61927;50.080;14.418;2023-10-08T07:55:29;100182.56;;;11.41;78.44
73633;BME280;61927;50.080;14.418;2023-10-08T07:57:58;100177.25;;;11.41;79.15
73633;BME280;61927;50.080;14.418;2023-10-08T08:00:24;100187.53;;;11.47;80.12
73633;BME280;61927;50.080;14.418;2023-10-08T08:02:55;100200.50;;;11.53;79.89
73633;BME280;61927;50.080;14.418;2023-10-08T08:05:23;100199.22;;;11.60;78.99
73633;BME280;61927;50.080;14.418;2023-10-08T08:07:50;100197.41;;;11.45;78.16
73633;BME280;61927;50.080;14.418;2023-10-08T08:10:17;100197.47;;;11.44;79.11
73633;BME280;61927;50.080;14.418;2023-10-08T08:12:44;100199.19;;;11.45;79.59
73633;BME280;61927;50.080;14.418;2023-10-08T08:15:11;100213.88;;;11.52;80.66
73633;BME280;61927;50.080;14.418;2023-10-08T08:17:46;100218.84;;;11.58;80.14
73633;BME280;61927;50.080;14.418;2023-10-08T08:20:13;100228.06;;;11.68;79.88
73633;BME280;61927;50.080;14.418;2023-10-08T08:23:00;100233.44;;;11.84;79.99
73633;BME280;61927;50.080;14.418;2023-10-08T08:25:37;100242.13;;;11.70;79.42
73633;BME280;61927;50.080;14.418;2023-10-08T08:28:14;100230.56;;;11.71;77.63
73633;BME280;61927;50.080;14.418;2023-10-08T08:30:43;100226.66;;;11.61;78.56
73633;BME280;61927;50.080;14.418;2023-10-08T08:33:13;100238.44;;;11.40;77.07
73633;BME280;61927;50.080;14.418;2023-10-08T08:35:56;100244.16;;;11.32;78.15
73633;BME280;61927;50.080;14.418;2023-10-08T08:38:22;100247.91;;;11.28;78.41
73633;BME280;61927;50.080;14.418;2023-10-08T08:40:49;100246.97;;;11.29;79.52
73633;BME280;61927;50.080;14.418;2023-10-08T08:43:16;100244.63;;;11.40;78.34
73633;BME280;61927;50.080;14.418;2023-10-08T08:45:42;100249.31;;;11.35;77.51
73633;BME280;61927;50.080;14.418;2023-10-08T08:48:09;100258.84;;;11.39;77.00
73633;BME280;61927;50.080;14.418;2023-10-08T08:50:36;100255.13;;;11.59;78.08
73633;BME280;61927;50.080;14.418;2023-10-08T08:53:03;100268.09;;;11.82;76.78
73633;BME280;61927;50.080;14.418;2023-10-08T08:55:31;100264.41;;;11.85;74.79
73633;BME280;61927;50.080;14.418;2023-10-08T08:57:59;100268.44;;;11.92;73.10
73633;BME280;61927;50.080;14.418;2023-10-08T09:00:28;100273.25;;;11.68;73.96
73633;BME280;61927;50.080;14.418;2023-10-08T09:02:55;100287.97;;;11.58;74.27
73633;BME280;61927;50.080;14.418;2023-10-08T09:05:21;100295.09;;;11.57;74.84
73633;BME280;61927;50.080;14.418;2023-10-08T09:08:04;100298.53;;;11.59;73.61
73633;BME280;61927;50.080;14.418;2023-10-08T09:10:34;100313.22;;;11.49;74.55
73633;BME280;61927;50.080;14.418;2023-10-08T09:13:04;100321.75;;;11.39;75.21
73633;BME280;61927;50.080;14.418;2023-10-08T09:15:31;100314.63;;;11.56;75.49
73633;BME280;61927;50.080;14.418;2023-10-08T09:17:58;100325.03;;;11.44;75.23
73633;BME280;61927;50.080;14.418;2023-10-08T09:20:28;100322.06;;;11.15;75.54
73633;BME280;61927;50.080;14.418;2023-10-08T09:23:07;100317.44;;;11.02;76.11
73633;BME280;61927;50.080;14.418;2023-10-08T09:25:34;100328.78;;;11.05;76.99
73633;BME280;61927;50.080;14.418;2023-10-08T09:27:59;100319.41;;;10.98;76.97
73633;BME280;61927;50.080;14.418;2023-10-08T09:30:25;100314.81;;;11.19;76.94
73633;BME280;61927;50.080;14.418;2023-10-08T09:32:51;100313.63;;;11.07;76.30
73633;BME280;61927;50.080;14.418;2023-10-08T09:35:17;100329.78;;;11.03;76.66
73633;BME280;61927;50.080;14.418;2023-10-08T09:37:44;100339.50;;;11.21;75.98
73633;BME280;61927;50.080;14.418;2023-10-08T09:40:11;100332.00;;;11.29;75.40
73633;BME280;61927;50.080;14.418;2023-10-08T09:42:42;100337.22;;;11.30;75.74
73633;BME280;61927;50.080;14.418;2023-10-08T09:45:08;100337.31;;;11.46;74.39
73633;BME280;61927;50.080;14.418;2023-10-08T09:47:38;100346.63;;;11.55;74.06
73633;BME280;61927;50.080;14.418;2023-10-08T09:50:07;100344.94;;;11.70;74.34
73633;BME280;61927;50.080;14.418;2023-10-08T09:52:42;100337.75;;;11.72;73.61
73633;BME280;61927;50.080;14.418;2023-10-08T09:55:12;100336.44;;;11.80;72.78
73633;BME280;61927;50.080;14.418;2023-10-08T09:57:38;100333.63;;;11.83;73.02
73633;BME280;61927;50.080;14.418;2023-10-08T10:00:05;100335.44;;;11.83;73.04
73633;BME280;61927;50.080;14.418;2023-10-08T10:02:40;100325.50;;;11.69;73.94
73633;BME280;61927;50.080;14.418;2023-10-08T10:05:10;100335.50;;;11.81;74.17
73633;BME280;61927;50.080;14.418;2023-10-08T10:07:37;100345.13;;;11.84;72.89
73633;BME280;61927;50.080;14.418;2023-10-08T10:10:25;100361.69;;;11.89;72.97
73633;BME280;61927;50.080;14.418;2023-10-08T10:12:51;100358.78;;;11.93;72.77
73633;BME280;61927;50.080;14.418;2023-10-08T10:15:20;100349.97;;;11.93;72.53
73633;BME280;61927;50.080;14.418;2023-10-08T10:17:47;100344.16;;;12.02;72.10
73633;BME280;61927;50.080;14.418;2023-10-08T10:20:13;100330.59;;;12.07;72.21
73633;BME280;61927;50.080;14.418;2023-10-08T10:22:39;100345.28;;;12.14;71.66
73633;BME280;61927;50.080;14.418;2023-10-08T10:25:07;100357.72;;;12.13;71.17
73633;BME280;61927;50.080;14.418;2023-10-08T10:30:20;100384.03;;;12.02;72.07
73633;BME280;61927;50.080;14.418;2023-10-08T10:32:51;100381.22;;;12.05;71.92
73633;BME280;61927;50.080;14.418;2023-10-08T10:35:17;100381.78;;;11.94;71.34
73633;BME280;61927;50.080;14.418;2023-10-08T10:37:48;100383.75;;;11.91;71.39
73633;BME280;61927;50.080;14.418;2023-10-08T10:40:21;100395.47;;;12.04;71.49
73633;BME280;61927;50.080;14.418;2023-10-08T10:42:58;100382.00;;;12.07;71.31
73633;BME280;61927;50.080;14.418;2023-10-08T10:45:29;100387.44;;;12.21;69.96
73633;BME280;61927;50.080;14.418;2023-10-08T10:48:20;100385.03;;;12.17;69.71
73633;BME280;61927;50.080;14.418;2023-10-08T10:50:49;100380.50;;;12.19;70.28
73633;BME280;61927;50.080;14.418;2023-10-08T10:53:34;100387.22;;;12.42;69.86
73633;BME280;61927;50.080;14.418;2023-10-08T10:56:16;100381.06;;;12.57;68.93
73633;BME280;61927;50.080;14.418;2023-10-08T10:58:47;100392.16;;;12.65;68.23
73633;BME280;61927;50.080;14.418;2023-10-08T11:01:25;100396.72;;;12.79;67.97
73633;BME280;61927;50.080;14.418;2023-10-08T11:03:56;100396.28;;;12.86;67.53
73633;BME280;61927;50.080;14.418;2023-10-08T11:06:25;100403.56;;;12.67;67.21
73633;BME280;61927;50.080;14.418;2023-10-08T11:08:54;100403.91;;;12.61;68.27
73633;BME280;61927;50.080;14.418;2023-10-08T11:11:28;100386.47;;;12.87;67.50
73633;BME280;61927;50.080;14.418;2023-10-08T11:13:59;100388.47;;;12.99;66.78
73633;BME280;61927;50.080;14.418;2023-10-08T11:16:26;100387.50;;;13.00;66.73
73633;BME280;61927;50.080;14.418;2023-10-08T11:18:54;100385.44;;;13.05;65.94
73633;BME280;61927;50.080;14.418;2023-10-08T11:21:31;100394.47;;;12.87;65.57
73633;BME280;61927;50.080;14.418;2023-10-08T11:23:59;100384.69;;;12.87;66.51
73633;BME280;61927;50.080;14.418;2023-10-08T11:26:26;100381.84;;;13.06;65.27
73633;BME280;61927;50.080;14.418;2023-10-08T11:29:06;100383.28;;;13.12;64.55
73633;BME280;61927;50.080;14.418;2023-10-08T11:31:40;100379.59;;;13.14;63.93
73633;BME280;61927;50.080;14.418;2023-10-08T11:34:05;100381.50;;;12.97;64.54
73633;BME280;61927;50.080;14.418;2023-10-08T11:36:36;100380.97;;;13.21;63.90
73633;BME280;61927;50.080;14.418;2023-10-08T11:39:14;100377.19;;;13.25;63.26
73633;BME280;61927;50.080;14.418;2023-10-08T11:42:03;100384.91;;;13.30;62.88
73633;BME280;61927;50.080;14.418;2023-10-08T11:44:32;100386.91;;;13.11;62.53
73633;BME280;61927;50.080;14.418;2023-10-08T11:47:04;100380.44;;;13.15;63.11
73633;BME280;61927;50.080;14.418;2023-10-08T11:49:38;100379.31;;;13.35;62.16
73633;BME280;61927;50.080;14.418;2023-10-08T11:52:13;100377.88;;;13.13;62.19
73633;BME280;61927;50.080;14.418;2023-10-08T11:54:44;100373.25;;;13.17;62.33
73633;BME280;61927;50.080;14.418;2023-10-08T11:57:10;100373.06;;;13.20;62.02
73633;BME280;61927;50.080;14.418;2023-10-08T11:59:36;100367.03;;;13.32;61.49
73633;BME280;61927;50.080;14.418;2023-10-08T12:02:08;100377.47;;;13.21;61.15
73633;BME280;61927;50.080;14.418;2023-10-08T12:04:33;100373.06;;;13.20;60.82
73633;BME280;61927;50.080;14.418;2023-10-08T12:06:59;100376.91;;;13.14;61.72
73633;BME280;61927;50.080;14.418;2023-10-08T12:09:28;100383.28;;;13.28;61.44
73633;BME280;61927;50.080;14.418;2023-10-08T12:11:54;100393.41;;;13.37;60.69
73633;BME280;61927;50.080;14.418;2023-10-08T12:14:21;100387.75;;;13.27;61.04
73633;BME280;61927;50.080;14.418;2023-10-08T12:16:52;100382.97;;;13.18;60.91
73633;BME280;61927;50.080;14.418;2023-10-08T12:19:17;100384.66;;;13.35;60.95
73633;BME280;61927;50.080;14.418;2023-10-08T12:21:45;100390.16;;;13.32;60.55
73633;BME280;61927;50.080;14.418;2023-10-08T12:24:14;100388.59;;;13.43;60.60
73633;BME280;61927;50.080;14.418;2023-10-08T12:26:40;100394.81;;;13.58;59.84
73633;BME280;61927;50.080;14.418;2023-10-08T12:29:14;100384.44;;;13.53;60.30
73633;BME280;61927;50.080;14.418;2023-10-08T12:31:40;100382.97;;;13.78;59.53
73633;BME280;61927;50.080;14.418;2023-10-08T12:34:06;100375.63;;;13.81;58.13
73633;BME280;61927;50.080;14.418;2023-10-08T12:36:32;100377.28;;;13.98;58.69
73633;BME280;61927;50.080;14.418;2023-10-08T12:39:02;100377.47;;;13.95;58.49
73633;BME280;61927;50.080;14.418;2023-10-08T12:41:43;100380.47;;;13.75;59.25
73633;BME280;61927;50.080;14.418;2023-10-08T12:44:10;100374.47;;;13.71;59.26
73633;BME280;61927;50.080;14.418;2023-10-08T12:46:36;100374.38;;;13.73;58.26
73633;BME280;61927;50.080;14.418;2023-10-08T12:49:02;100376.09;;;13.74;58.27
73633;BME280;61927;50.080;14.418;2023-10-08T12:51:29;100385.59;;;13.64;58.60
73633;BME280;61927;50.080;14.418;2023-10-08T12:53:59;100366.47;;;13.71;58.57
73633;BME280;61927;50.080;14.418;2023-10-08T12:56:30;100358.28;;;13.74;58.55
73633;BME280;61927;50.080;14.418;2023-10-08T12:59:04;100360.69;;;13.79;59.03
73633;BME280;61927;50.080;14.418;2023-10-08T13:01:35;100371.75;;;13.87;58.50
73633;BME280;61927;50.080;14.418;2023-10-08T13:04:02;100365.25;;;13.77;58.46
73633;BME280;61927;50.080;14.418;2023-10-08T13:06:34;100378.59;;;13.77;58.14
73633;BME280;61927;50.080;14.418;2023-10-08T13:09:03;100373.81;;;13.68;57.83